N94KS -L08
Flight info
| Callsign | N94KS |
|---|---|
| Flight time | N/A |
| Altitude | VFR/095 |
| Route | |
| Aircraft | BE33/L-VGD/C |
Departure
| Time | N/A |
|---|---|
| Airport | - |
Arrival
| Time | 2026-04-29 03:26 |
|---|---|
| Airport | Borrego Valley Airport (L08) |
| Time | Latitude | Longitude | Altitude | Speed | Heading |
|---|---|---|---|---|---|
| 2026-04-29 03:03 | 32.73000 | -117.14707 | 3757 ft | 109 kts | 129° |
| 2026-04-29 03:04 | 32.72627 | -117.13936 | 3953 ft | 110 kts | 117° |
| 2026-04-29 03:04 | 32.72454 | -117.13020 | 4155 ft | 112 kts | 90° |
| 2026-04-29 03:04 | 32.72644 | -117.12152 | 4385 ft | 108 kts | 64° |
| 2026-04-29 03:04 | 32.73003 | -117.11391 | 4549 ft | 111 kts | 58° |
| 2026-04-29 03:05 | 32.73420 | -117.10636 | 4745 ft | 111 kts | 54° |
| 2026-04-29 03:05 | 32.73727 | -117.10121 | 4846 ft | 114 kts | 54° |
| 2026-04-29 03:05 | 32.74339 | -117.09137 | 5005 ft | 110 kts | 50° |
| 2026-04-29 03:05 | 32.74832 | -117.08414 | 5119 ft | 117 kts | 50° |
| 2026-04-29 03:06 | 32.75352 | -117.07671 | 5364 ft | 119 kts | 50° |
| 2026-04-29 03:06 | 32.75875 | -117.06905 | 5652 ft | 118 kts | 51° |
| 2026-04-29 03:06 | 32.76388 | -117.06159 | 5930 ft | 116 kts | 50° |
| 2026-04-29 03:06 | 32.76912 | -117.05424 | 6165 ft | 119 kts | 52° |
| 2026-04-29 03:07 | 32.77446 | -117.04675 | 6430 ft | 118 kts | 52° |
| 2026-04-29 03:07 | 32.77975 | -117.03918 | 6655 ft | 120 kts | 51° |
| 2026-04-29 03:07 | 32.78536 | -117.03170 | 6873 ft | 124 kts | 49° |
| 2026-04-29 03:07 | 32.79162 | -117.02413 | 7100 ft | 125 kts | 49° |
| 2026-04-29 03:08 | 32.79710 | -117.01631 | 7348 ft | 123 kts | 53° |
| 2026-04-29 03:08 | 32.80252 | -117.00857 | 7597 ft | 121 kts | 53° |
| 2026-04-29 03:08 | 32.80614 | -117.00340 | 7765 ft | 120 kts | 54° |
| 2026-04-29 03:08 | 32.81309 | -116.99338 | 8096 ft | 116 kts | 55° |
| 2026-04-29 03:09 | 32.81820 | -116.98593 | 8344 ft | 113 kts | 56° |
| 2026-04-29 03:09 | 32.82316 | -116.97862 | 8546 ft | 115 kts | 56° |
| 2026-04-29 03:09 | 32.82819 | -116.97113 | 8751 ft | 115 kts | 57° |
| 2026-04-29 03:09 | 32.83322 | -116.96362 | 8955 ft | 115 kts | 57° |
| 2026-04-29 03:10 | 32.83654 | -116.95865 | 9090 ft | 115 kts | 57° |
| 2026-04-29 03:10 | 32.84320 | -116.94870 | 9360 ft | 115 kts | 57° |
| 2026-04-29 03:10 | 32.84653 | -116.94372 | 9472 ft | 117 kts | 57° |
| 2026-04-29 03:10 | 32.85169 | -116.93578 | 9503 ft | 120 kts | 59° |
| 2026-04-29 03:11 | 32.85830 | -116.92542 | 9505 ft | 117 kts | 57° |
| 2026-04-29 03:11 | 32.86338 | -116.91776 | 9508 ft | 118 kts | 57° |
| 2026-04-29 03:11 | 32.86855 | -116.91004 | 9508 ft | 121 kts | 56° |
| 2026-04-29 03:11 | 32.87421 | -116.90168 | 9517 ft | 134 kts | 55° |
| 2026-04-29 03:12 | 32.88033 | -116.89256 | 9517 ft | 145 kts | 56° |
| 2026-04-29 03:12 | 32.88671 | -116.88290 | 9512 ft | 153 kts | 56° |
| 2026-04-29 03:12 | 32.89349 | -116.87257 | 9509 ft | 158 kts | 55° |
| 2026-04-29 03:12 | 32.90040 | -116.86211 | 9507 ft | 162 kts | 55° |
| 2026-04-29 03:13 | 32.90508 | -116.85508 | 9506 ft | 163 kts | 54° |
| 2026-04-29 03:13 | 32.91467 | -116.84072 | 9505 ft | 166 kts | 54° |
| 2026-04-29 03:13 | 32.92180 | -116.83009 | 9504 ft | 167 kts | 54° |
| 2026-04-29 03:13 | 32.92913 | -116.81915 | 9503 ft | 167 kts | 54° |
| 2026-04-29 03:14 | 32.93639 | -116.80833 | 9502 ft | 168 kts | 54° |
| 2026-04-29 03:14 | 32.94375 | -116.79732 | 9502 ft | 168 kts | 54° |
| 2026-04-29 03:14 | 32.95089 | -116.78658 | 9590 ft | 163 kts | 54° |
| 2026-04-29 03:14 | 32.95793 | -116.77604 | 9608 ft | 164 kts | 54° |
| 2026-04-29 03:15 | 32.96514 | -116.76517 | 9611 ft | 165 kts | 55° |
| 2026-04-29 03:15 | 32.97225 | -116.75444 | 9611 ft | 166 kts | 54° |
| 2026-04-29 03:15 | 32.97950 | -116.74353 | 9609 ft | 167 kts | 54° |
| 2026-04-29 03:15 | 32.98677 | -116.73270 | 9610 ft | 167 kts | 54° |
| 2026-04-29 03:16 | 32.99409 | -116.72174 | 9611 ft | 167 kts | 54° |
| 2026-04-29 03:16 | 33.00129 | -116.71087 | 9611 ft | 167 kts | 54° |
| 2026-04-29 03:16 | 33.00850 | -116.69999 | 9610 ft | 168 kts | 54° |
| 2026-04-29 03:16 | 33.01336 | -116.69266 | 9610 ft | 168 kts | 54° |
| 2026-04-29 03:17 | 33.02306 | -116.67806 | 9610 ft | 168 kts | 54° |
| 2026-04-29 03:17 | 33.03029 | -116.66716 | 9610 ft | 168 kts | 54° |
| 2026-04-29 03:17 | 33.03747 | -116.65635 | 9610 ft | 168 kts | 54° |
| 2026-04-29 03:17 | 33.04476 | -116.64538 | 9610 ft | 168 kts | 54° |
| 2026-04-29 03:18 | 33.05200 | -116.63446 | 9610 ft | 168 kts | 54° |
| 2026-04-29 03:18 | 33.05925 | -116.62354 | 9610 ft | 168 kts | 54° |
| 2026-04-29 03:18 | 33.06653 | -116.61257 | 9610 ft | 168 kts | 54° |
| 2026-04-29 03:18 | 33.07382 | -116.60157 | 9611 ft | 168 kts | 54° |
| 2026-04-29 03:19 | 33.08103 | -116.59071 | 9610 ft | 168 kts | 54° |
| 2026-04-29 03:19 | 33.08831 | -116.57971 | 9610 ft | 168 kts | 54° |
| 2026-04-29 03:19 | 33.09558 | -116.56874 | 9610 ft | 168 kts | 54° |
| 2026-04-29 03:19 | 33.10274 | -116.55795 | 9609 ft | 168 kts | 54° |
| 2026-04-29 03:20 | 33.11011 | -116.54685 | 9608 ft | 167 kts | 54° |
| 2026-04-29 03:20 | 33.11739 | -116.53586 | 9608 ft | 167 kts | 54° |
| 2026-04-29 03:20 | 33.12455 | -116.52503 | 9608 ft | 167 kts | 54° |
| 2026-04-29 03:20 | 33.13177 | -116.51411 | 9605 ft | 167 kts | 54° |
| 2026-04-29 03:21 | 33.13898 | -116.50320 | 9601 ft | 167 kts | 54° |
| 2026-04-29 03:21 | 33.14617 | -116.49232 | 9597 ft | 167 kts | 54° |
| 2026-04-29 03:21 | 33.15351 | -116.48131 | 9568 ft | 166 kts | 52° |
| 2026-04-29 03:21 | 33.16145 | -116.47122 | 9186 ft | 172 kts | 44° |
| 2026-04-29 03:22 | 33.16750 | -116.46467 | 8899 ft | 175 kts | 45° |
| 2026-04-29 03:22 | 33.17873 | -116.45116 | 8436 ft | 172 kts | 47° |
| 2026-04-29 03:22 | 33.18702 | -116.44106 | 8086 ft | 169 kts | 46° |
| 2026-04-29 03:22 | 33.19515 | -116.43110 | 7657 ft | 169 kts | 48° |
| 2026-04-29 03:23 | 33.20301 | -116.42069 | 7222 ft | 169 kts | 51° |
| 2026-04-29 03:23 | 33.21016 | -116.40965 | 6798 ft | 168 kts | 57° |
| 2026-04-29 03:23 | 33.21672 | -116.39782 | 6146 ft | 172 kts | 58° |
| 2026-04-29 03:23 | 33.22331 | -116.38617 | 5442 ft | 168 kts | 58° |
| 2026-04-29 03:24 | 33.22923 | -116.37468 | 4709 ft | 164 kts | 62° |
| 2026-04-29 03:24 | 33.23456 | -116.36290 | 3949 ft | 162 kts | 67° |
| 2026-04-29 03:24 | 33.23862 | -116.35063 | 3199 ft | 159 kts | 73° |
| 2026-04-29 03:24 | 33.24123 | -116.33801 | 2515 ft | 153 kts | 81° |
| 2026-04-29 03:25 | 33.24329 | -116.32568 | 1819 ft | 152 kts | 82° |
| 2026-04-29 03:25 | 33.24437 | -116.31769 | 1558 ft | 138 kts | 84° |
| 2026-04-29 03:25 | 33.24590 | -116.30450 | 1331 ft | 107 kts | 55° |
| 2026-04-29 03:25 | 33.25258 | -116.30279 | 951 ft | 107 kts | 340° |
| 2026-04-29 03:26 | 33.25679 | -116.30627 | 712 ft | 113 kts | 312° |
| 2026-04-29 03:26 | 33.25905 | -116.31689 | 528 ft | 84 kts | 267° |
| 2026-04-29 03:26 | 33.25896 | -116.32253 | 519 ft | 47 kts | 268° |
| 2026-04-29 03:26 | 33.25893 | -116.32507 | 519 ft | 20 kts | 269° |
| 2026-04-29 03:27 | 33.25847 | -116.32591 | 519 ft | 7 kts | 221° |
| 2026-04-29 03:27 | 33.25824 | -116.32612 | 519 ft | 0 kts | 207° |
| 2026-04-29 03:28 | 33.25789 | -116.32614 | 519 ft | 12 kts | 173° |
| 2026-04-29 03:28 | 33.25776 | -116.32533 | 519 ft | 11 kts | 80° |
| 2026-04-29 03:29 | 33.25775 | -116.32503 | 519 ft | 0 kts | 174° |
| 2026-04-29 03:29 | 33.25774 | -116.32503 | 519 ft | 0 kts | 174° |